Time;durP1;ratioP1;P1;durP2;ratioP2;P2;SDS_P1;SDS_P2;PMS_P1;PMS_P2;Temp;Humidity;BMP_temperature;BMP_pressure;BME280_temperature;BME280_humidity;BME280_pressure;Samples;Min_cycle;Max_cycle;Signal;HPM_P1;HPM_P2
2023/08/25 00:01:17;;;;;;;7.15;4.85;;;20.30;99.90;;;;;;5100181;28;20280;-79
2023/08/25 00:03:44;;;;;;;5.40;3.97;;;20.30;99.90;;;;;;5085051;28;20203;-79
2023/08/25 00:06:11;;;;;;;6.38;4.38;;;20.30;99.90;;;;;;5093348;28;20215;-79
2023/08/25 00:08:38;;;;;;;7.65;4.90;;;20.50;99.90;;;;;;5090556;28;20194;-79
2023/08/25 00:11:05;;;;;;;9.38;5.03;;;20.40;99.90;;;;;;5079535;28;20679;-80
2023/08/25 00:13:35;;;;;;;7.93;4.88;;;20.30;99.90;;;;;;5080015;28;20582;-80
2023/08/25 00:16:04;;;;;;;5.90;4.35;;;20.30;99.90;;;;;;5080020;28;20224;-80
2023/08/25 00:18:32;;;;;;;6.97;4.30;;;20.20;99.90;;;;;;5079014;28;20213;-79
2023/08/25 00:20:58;;;;;;;6.40;4.60;;;20.10;99.90;;;;;;5086455;28;20222;-80
2023/08/25 00:23:25;;;;;;;9.13;4.50;;;20.00;99.90;;;;;;5090745;28;20215;-80
2023/08/25 00:25:53;;;;;;;9.50;5.10;;;19.80;99.90;;;;;;5099874;28;20201;-80
2023/08/25 00:28:20;;;;;;;9.57;4.80;;;19.80;99.90;;;;;;5098923;28;20245;-80
2023/08/25 00:30:47;;;;;;;8.95;4.68;;;20.00;99.90;;;;;;5099380;28;20668;-80
2023/08/25 00:33:16;;;;;;;7.75;5.13;;;20.00;99.90;;;;;;5099793;28;20210;-80
2023/08/25 00:35:43;;;;;;;6.40;4.80;;;20.00;99.90;;;;;;5097614;28;20223;-80
2023/08/25 00:38:10;;;;;;;7.57;4.95;;;20.00;99.90;;;;;;5079386;28;20664;-80
2023/08/25 00:40:36;;;;;;;7.00;4.63;;;20.10;99.90;;;;;;5078680;28;20248;-80
2023/08/25 00:43:04;;;;;;;8.15;5.18;;;20.00;99.90;;;;;;5088231;28;20201;-80
2023/08/25 00:45:33;;;;;;;6.95;5.07;;;19.90;99.90;;;;;;5090913;28;20198;-80
2023/08/25 00:48:00;;;;;;;8.10;5.35;;;19.90;99.90;;;;;;5099497;28;20198;-80
2023/08/25 00:50:29;;;;;;;6.47;4.95;;;20.00;99.90;;;;;;5093421;28;20300;-80
2023/08/25 00:52:57;;;;;;;6.45;5.22;;;19.90;99.90;;;;;;5099426;28;20217;-79
2023/08/25 00:55:24;;;;;;;7.95;5.60;;;19.80;99.90;;;;;;5085512;28;20230;-80
2023/08/25 00:57:51;;;;;;;6.15;5.00;;;19.90;99.90;;;;;;5090292;28;20224;-80
2023/08/25 01:00:18;;;;;;;9.13;5.18;;;19.90;99.90;;;;;;5098655;28;20213;-80
2023/08/25 01:02:46;;;;;;;6.43;5.13;;;20.00;99.90;;;;;;5093355;28;20186;-80
2023/08/25 01:05:12;;;;;;;10.43;5.45;;;20.00;99.90;;;;;;5085744;28;20194;-79
2023/08/25 01:07:43;;;;;;;6.50;5.00;;;20.00;99.90;;;;;;5090972;28;20238;-79
2023/08/25 01:10:12;;;;;;;7.18;4.68;;;20.00;99.90;;;;;;5096158;28;20228;-79
2023/08/25 01:12:52;;;;;;;7.40;4.50;;;20.10;99.90;;;;;;5096847;28;20232;-80
2023/08/25 01:15:26;;;;;;;4.68;4.10;;;20.20;99.90;;;;;;5093485;28;20194;-80
2023/08/25 01:17:58;;;;;;;6.13;4.40;;;20.20;99.90;;;;;;5096981;28;20204;-79
2023/08/25 01:20:27;;;;;;;7.53;4.85;;;20.10;99.90;;;;;;5081212;28;20237;-80
2023/08/25 01:23:10;;;;;;;5.60;4.45;;;20.10;99.90;;;;;;5078710;28;20194;-80
2023/08/25 01:25:39;;;;;;;7.35;4.93;;;20.10;99.90;;;;;;5078892;28;20206;-79
2023/08/25 01:28:06;;;;;;;5.05;4.28;;;20.10;99.90;;;;;;5095161;28;20264;-80
2023/08/25 01:30:35;;;;;;;7.18;4.60;;;20.10;99.90;;;;;;5083145;28;20222;-80
2023/08/25 01:33:04;;;;;;;7.95;4.78;;;20.10;99.90;;;;;;5086125;28;20592;-79
2023/08/25 01:35:43;;;;;;;5.90;4.55;;;20.00;99.90;;;;;;5096854;28;20201;-79
2023/08/25 01:38:17;;;;;;;7.32;4.40;;;19.90;99.90;;;;;;5093686;28;20198;-80
2023/08/25 01:40:51;;;;;;;6.85;4.60;;;19.90;99.90;;;;;;5079628;28;20592;-80
2023/08/25 01:43:22;;;;;;;5.38;4.28;;;19.90;99.90;;;;;;5099586;28;20278;-79
2023/08/25 01:45:51;;;;;;;5.95;4.47;;;19.90;99.90;;;;;;5098362;28;20273;-79
2023/08/25 01:48:19;;;;;;;9.65;5.00;;;19.80;99.90;;;;;;5098017;28;20288;-80
2023/08/25 01:50:46;;;;;;;7.10;4.85;;;19.80;99.90;;;;;;5080752;28;20635;-79
2023/08/25 01:53:14;;;;;;;5.43;4.15;;;19.90;99.90;;;;;;5097951;28;20221;-80
2023/08/25 01:55:40;;;;;;;4.65;4.18;;;20.00;99.90;;;;;;5093435;28;20225;-79
2023/08/25 01:58:10;;;;;;;8.25;4.95;;;19.80;99.90;;;;;;5097596;28;20205;-80
2023/08/25 02:00:37;;;;;;;5.50;4.57;;;19.80;99.90;;;;;;5082209;28;20574;-79
2023/08/25 02:03:04;;;;;;;8.82;5.47;;;19.80;99.90;;;;;;5089098;28;20204;-79
2023/08/25 02:05:31;;;;;;;9.00;4.65;;;19.80;99.90;;;;;;5084889;28;20285;-80
2023/08/25 02:07:57;;;;;;;9.40;5.03;;;19.90;99.90;;;;;;5092562;28;20585;-80
2023/08/25 02:10:24;;;;;;;9.27;5.30;;;19.80;99.90;;;;;;5097407;28;20217;-80
2023/08/25 02:12:51;;;;;;;8.45;5.18;;;19.80;99.90;;;;;;5085517;28;20780;-79
2023/08/25 02:15:19;;;;;;;7.55;4.53;;;19.80;99.90;;;;;;5078789;28;20256;-80
2023/08/25 02:17:46;;;;;;;7.75;5.18;;;19.70;99.90;;;;;;5083037;28;20205;-79
2023/08/25 02:20:13;;;;;;;6.28;4.63;;;19.70;99.90;;;;;;5097053;28;20225;-79
2023/08/25 02:22:40;;;;;;;5.85;4.35;;;19.70;99.90;;;;;;5097548;28;20201;-79
2023/08/25 02:25:08;;;;;;;5.00;4.35;;;19.60;99.90;;;;;;5097438;28;20202;-79
2023/08/25 02:27:35;;;;;;;5.90;4.18;;;19.60;99.90;;;;;;5097964;28;20201;-79
2023/08/25 02:30:03;;;;;;;5.25;4.05;;;19.40;99.90;;;;;;5092314;28;20256;-79
2023/08/25 02:32:31;;;;;;;7.63;4.30;;;19.30;99.90;;;;;;5077879;28;20222;-80
2023/08/25 02:34:57;;;;;;;6.88;4.72;;;19.50;99.90;;;;;;5084459;28;20206;-80
2023/08/25 02:37:25;;;;;;;8.90;4.50;;;19.50;99.90;;;;;;5097032;28;20226;-80
2023/08/25 02:39:51;;;;;;;5.68;3.83;;;19.40;99.90;;;;;;5087355;28;20246;-80
2023/08/25 02:42:18;;;;;;;4.60;4.05;;;19.30;99.90;;;;;;5077512;28;20194;-79
2023/08/25 02:44:45;;;;;;;6.05;3.90;;;19.30;99.90;;;;;;5085720;28;20310;-80
2023/08/25 02:47:12;;;;;;;5.82;3.90;;;19.30;99.90;;;;;;5097754;28;20229;-79
2023/08/25 02:49:40;;;;;;;7.53;4.15;;;19.40;99.90;;;;;;5097751;28;20309;-80
2023/08/25 02:52:07;;;;;;;5.13;3.80;;;19.40;99.90;;;;;;5097569;28;20225;-79
2023/08/25 02:54:34;;;;;;;7.80;3.90;;;19.20;99.90;;;;;;5097782;28;20247;-78
2023/08/25 02:57:00;;;;;;;5.35;3.47;;;19.10;99.90;;;;;;5091730;28;20194;-79
2023/08/25 02:59:28;;;;;;;5.45;3.85;;;19.10;99.90;;;;;;5076711;28;20228;-79
2023/08/25 03:01:55;;;;;;;5.10;3.85;;;19.20;99.90;;;;;;5086720;28;20194;-80
2023/08/25 03:04:22;;;;;;;6.38;3.70;;;19.40;99.90;;;;;;5092898;28;20680;-80
2023/08/25 03:06:50;;;;;;;6.03;3.40;;;19.40;99.90;;;;;;5086094;28;20223;-79
2023/08/25 03:09:16;;;;;;;6.30;3.78;;;19.30;99.90;;;;;;5093358;28;20284;-80
2023/08/25 03:11:43;;;;;;;4.15;3.38;;;19.40;99.90;;;;;;5097200;28;20582;-81
2023/08/25 03:14:10;;;;;;;5.57;3.45;;;19.30;99.90;;;;;;5086271;28;20194;-80
2023/08/25 03:16:37;;;;;;;5.47;3.55;;;19.30;99.90;;;;;;5078308;28;20285;-80
2023/08/25 03:19:04;;;;;;;5.88;4.13;;;19.10;99.90;;;;;;5076587;28;20229;-78
2023/08/25 03:21:31;;;;;;;4.80;3.55;;;19.10;99.90;;;;;;5097215;28;20237;-79
2023/08/25 03:23:59;;;;;;;7.85;3.92;;;19.20;99.90;;;;;;5091382;28;20201;-79
2023/08/25 03:26:26;;;;;;;4.28;3.63;;;19.00;99.90;;;;;;5078405;28;20660;-79
2023/08/25 03:28:53;;;;;;;12.48;4.55;;;19.00;99.90;;;;;;5075690;28;20912;-79
2023/08/25 03:31:21;;;;;;;5.55;3.70;;;19.00;99.90;;;;;;5077482;28;20202;-78
2023/08/25 03:33:47;;;;;;;5.20;3.42;;;18.90;99.90;;;;;;5092026;28;20225;-79
2023/08/25 03:36:14;;;;;;;8.10;3.75;;;18.90;99.90;;;;;;5097036;28;20201;-78
2023/08/25 03:38:41;;;;;;;6.78;4.65;;;18.80;99.90;;;;;;5095896;28;20213;-78
2023/08/25 03:41:09;;;;;;;8.10;5.95;;;18.80;99.90;;;;;;5095538;28;20292;-79
2023/08/25 03:43:36;;;;;;;10.48;6.68;;;18.90;99.90;;;;;;5094145;28;20194;-79
2023/08/25 03:46:03;;;;;;;4.47;3.75;;;18.80;99.90;;;;;;5094622;28;20547;-78
2023/08/25 03:48:30;;;;;;;4.40;3.78;;;18.70;99.90;;;;;;5082137;28;20564;-79
2023/08/25 03:50:57;;;;;;;8.15;4.10;;;18.80;99.90;;;;;;5080380;28;20719;-78
2023/08/25 03:53:24;;;;;;;6.13;4.05;;;18.70;99.90;;;;;;5076615;28;20226;-79
2023/08/25 03:55:51;;;;;;;6.07;4.10;;;18.60;99.90;;;;;;5090352;28;20197;-79
2023/08/25 03:58:19;;;;;;;5.68;3.95;;;18.60;99.90;;;;;;5092259;28;20207;-79
2023/08/25 04:00:52;;;;;;;12.65;8.77;;;18.50;99.90;;;;;;5087028;28;20222;-79
2023/08/25 04:03:19;;;;;;;14.80;11.18;;;18.50;99.90;;;;;;5098006;28;20205;-79
2023/08/25 04:05:46;;;;;;;8.65;5.75;;;18.70;99.90;;;;;;5089859;28;20214;-79
2023/08/25 04:08:15;;;;;;;6.75;3.97;;;18.70;99.90;;;;;;5086927;28;20206;-79
2023/08/25 04:10:42;;;;;;;5.85;3.55;;;18.70;99.90;;;;;;5090274;28;20217;-78
2023/08/25 04:13:09;;;;;;;7.20;4.22;;;18.60;99.90;;;;;;5095080;28;20290;-79
2023/08/25 04:15:38;;;;;;;3.95;3.53;;;18.50;99.90;;;;;;5092576;28;20194;-78
2023/08/25 04:18:05;;;;;;;6.05;3.35;;;18.40;99.90;;;;;;5094317;28;20288;-78
2023/08/25 04:20:32;;;;;;;6.70;3.78;;;18.50;99.90;;;;;;5092054;28;20304;-79
2023/08/25 04:23:01;;;;;;;4.80;4.00;;;18.50;99.90;;;;;;5083562;28;20201;-78
2023/08/25 04:25:29;;;;;;;7.68;4.05;;;18.40;99.90;;;;;;5097412;28;20213;-79
2023/08/25 04:27:57;;;;;;;8.77;4.03;;;18.50;99.90;;;;;;5097364;28;20233;-80
2023/08/25 04:30:23;;;;;;;5.07;3.92;;;18.30;99.90;;;;;;5102934;28;20221;-79
2023/08/25 04:32:53;;;;;;;5.93;4.07;;;18.40;99.90;;;;;;5090730;28;20243;-82
2023/08/25 04:35:20;;;;;;;6.50;3.60;;;18.50;99.90;;;;;;5081668;28;20652;-79
2023/08/25 04:37:48;;;;;;;5.75;3.97;;;18.60;99.90;;;;;;5096221;28;20261;-79
2023/08/25 04:40:15;;;;;;;8.15;3.95;;;18.80;99.90;;;;;;5088791;28;20222;-79
2023/08/25 04:42:42;;;;;;;5.15;3.50;;;18.80;99.90;;;;;;5084252;28;20289;-79
2023/08/25 04:45:11;;;;;;;6.70;4.18;;;18.70;99.90;;;;;;5092737;28;20201;-79
2023/08/25 04:47:37;;;;;;;7.95;4.30;;;18.80;99.90;;;;;;5088050;28;20414;-81
2023/08/25 04:50:07;;;;;;;5.70;4.07;;;18.80;99.90;;;;;;5085181;28;20695;-80
2023/08/25 04:52:35;;;;;;;15.57;10.73;;;18.80;99.90;;;;;;5093120;28;20213;-80
2023/08/25 04:55:04;;;;;;;12.00;8.23;;;18.80;99.90;;;;;;5090468;28;20560;-79
2023/08/25 04:57:31;;;;;;;7.18;4.63;;;18.80;99.90;;;;;;5085814;28;20198;-79
2023/08/25 04:59:58;;;;;;;5.10;3.88;;;18.80;99.90;;;;;;5096258;28;20742;-79
2023/08/25 05:02:27;;;;;;;9.20;4.05;;;18.90;99.90;;;;;;5081929;28;20202;-80
2023/08/25 05:04:55;;;;;;;6.10;3.80;;;18.90;99.90;;;;;;5085601;28;20202;-80
2023/08/25 05:07:24;;;;;;;6.78;3.80;;;18.90;99.90;;;;;;5087388;28;20201;-81
2023/08/25 05:09:53;;;;;;;7.68;4.05;;;18.90;99.90;;;;;;5090000;28;20234;-81
2023/08/25 05:12:19;;;;;;;6.40;3.92;;;18.80;99.90;;;;;;5084801;28;20203;-81
2023/08/25 05:14:48;;;;;;;4.40;4.00;;;19.00;99.90;;;;;;5086204;28;21135;-80
2023/08/25 05:17:15;;;;;;;5.05;3.78;;;18.80;99.90;;;;;;5089509;28;20213;-82
2023/08/25 05:19:44;;;;;;;6.68;3.65;;;19.00;99.90;;;;;;5080227;28;20222;-81
2023/08/25 05:22:12;;;;;;;4.30;3.65;;;19.00;99.90;;;;;;5082541;28;20233;-83
2023/08/25 05:24:41;;;;;;;5.22;3.50;;;19.20;99.90;;;;;;5089869;28;20207;-81
2023/08/25 05:27:09;;;;;;;8.43;3.75;;;19.40;99.90;;;;;;5080876;28;20251;-82
2023/08/25 05:29:36;;;;;;;4.43;3.30;;;19.50;99.90;;;;;;5087330;28;20214;-81
2023/08/25 05:32:03;;;;;;;3.92;3.28;;;19.70;99.90;;;;;;5091660;28;20212;-84
2023/08/25 05:34:31;;;;;;;15.73;10.57;;;19.70;99.90;;;;;;5096278;28;20217;-84
2023/08/25 05:36:58;;;;;;;8.70;5.57;;;19.70;99.90;;;;;;5083575;28;20209;-85
2023/08/25 05:39:25;;;;;;;5.43;3.63;;;19.90;99.90;;;;;;5095598;28;20218;-83
2023/08/25 05:41:54;;;;;;;6.47;3.83;;;19.90;99.90;;;;;;5089366;28;20198;-84
2023/08/25 05:44:21;;;;;;;6.97;3.58;;;19.80;99.90;;;;;;5088649;28;20285;-82
2023/08/25 05:46:47;;;;;;;7.95;3.80;;;19.80;99.90;;;;;;5091562;28;20204;-82
2023/08/25 05:49:16;;;;;;;5.72;3.33;;;19.80;99.90;;;;;;5093643;28;20337;-84
2023/08/25 05:51:43;;;;;;;6.53;3.67;;;19.70;99.90;;;;;;5085207;28;20722;-82
2023/08/25 05:54:10;;;;;;;5.28;3.30;;;19.80;99.90;;;;;;5085729;28;20217;-83
2023/08/25 05:56:38;;;;;;;5.78;3.80;;;19.80;99.90;;;;;;5089179;28;20212;-82
2023/08/25 05:59:06;;;;;;;4.28;3.40;;;19.90;99.90;;;;;;5090188;28;20217;-84
2023/08/25 06:01:33;;;;;;;6.22;3.33;;;20.00;99.90;;;;;;5089954;28;20198;-83
2023/08/25 06:03:59;;;;;;;6.47;3.30;;;20.10;99.90;;;;;;5089880;28;20198;-82
2023/08/25 06:06:26;;;;;;;5.65;3.83;;;20.10;99.90;;;;;;5090637;28;20210;-82
2023/08/25 06:08:54;;;;;;;5.90;3.50;;;20.30;99.90;;;;;;5088693;28;20681;-83
2023/08/25 06:11:21;;;;;;;6.95;4.13;;;20.30;99.90;;;;;;5092538;28;20202;-85
2023/08/25 06:13:47;;;;;;;6.32;3.75;;;20.30;99.90;;;;;;5085963;28;20718;-81
2023/08/25 06:16:16;;;;;;;9.02;3.70;;;20.30;99.90;;;;;;5090705;28;20202;-82
2023/08/25 06:18:46;;;;;;;6.57;3.50;;;20.40;99.90;;;;;;5089927;28;20571;-84
2023/08/25 06:21:14;;;;;;;6.03;3.53;;;20.40;99.90;;;;;;5090210;28;20222;-82
2023/08/25 06:23:41;;;;;;;5.10;3.30;;;20.60;99.90;;;;;;5088123;28;20202;-84
2023/08/25 06:26:09;;;;;;;6.13;3.92;;;20.70;99.90;;;;;;5082050;28;20605;-83
2023/08/25 06:28:36;;;;;;;8.13;3.97;;;20.70;99.90;;;;;;5095087;28;20193;-84
2023/08/25 06:31:03;;;;;;;7.28;3.75;;;21.10;99.90;;;;;;5084116;28;20218;-83
2023/08/25 06:33:32;;;;;;;4.50;3.60;;;21.30;99.90;;;;;;5081055;28;20226;-82
2023/08/25 06:35:59;;;;;;;6.63;3.92;;;21.20;99.90;;;;;;5094116;28;20734;-82
2023/08/25 06:38:29;;;;;;;7.18;4.03;;;21.30;99.90;;;;;;5101002;28;20244;-83
2023/08/25 06:40:58;;;;;;;7.47;4.28;;;21.20;99.90;;;;;;5089553;28;20217;-82
2023/08/25 06:43:25;;;;;;;6.10;3.65;;;21.20;99.90;;;;;;5095193;28;20229;-83
2023/08/25 06:45:53;;;;;;;7.93;3.78;;;21.30;99.90;;;;;;5086600;28;20206;-85
2023/08/25 06:48:20;;;;;;;5.50;4.38;;;21.30;99.90;;;;;;5087608;28;20224;-82
2023/08/25 06:50:48;;;;;;;5.35;3.90;;;21.30;99.90;;;;;;5093569;28;20218;-82
2023/08/25 06:53:17;;;;;;;4.45;3.65;;;21.50;99.90;;;;;;5093283;28;20729;-82
2023/08/25 06:55:44;;;;;;;5.28;3.67;;;21.60;99.90;;;;;;5097899;28;20211;-83
2023/08/25 06:58:11;;;;;;;7.45;4.10;;;21.50;99.90;;;;;;5081907;28;20190;-82
2023/08/25 07:00:39;;;;;;;4.13;3.60;;;21.40;99.90;;;;;;5090873;28;20222;-83
2023/08/25 07:03:07;;;;;;;7.95;3.90;;;21.40;99.90;;;;;;5084975;28;20199;-82
2023/08/25 07:05:37;;;;;;;6.07;4.30;;;21.50;99.90;;;;;;5089278;28;20213;-84
2023/08/25 07:08:07;;;;;;;8.27;4.10;;;21.50;99.90;;;;;;5087163;28;20202;-82
2023/08/25 07:10:35;;;;;;;4.50;3.58;;;21.60;99.90;;;;;;5077387;28;20226;-83
2023/08/25 07:13:02;;;;;;;5.93;4.13;;;21.60;99.90;;;;;;5094712;28;20226;-83
2023/08/25 07:15:29;;;;;;;5.72;3.60;;;21.60;99.90;;;;;;5095868;28;20589;-86
2023/08/25 07:17:57;;;;;;;10.45;4.15;;;21.80;99.90;;;;;;5095144;28;20229;-83
2023/08/25 07:20:23;;;;;;;5.22;3.60;;;22.10;99.90;;;;;;5084351;28;20252;-84
2023/08/25 07:22:51;;;;;;;6.32;3.70;;;22.30;99.90;;;;;;5090955;28;20212;-83
2023/08/25 07:25:19;;;;;;;7.70;3.50;;;22.10;99.90;;;;;;5096467;28;20201;-83
2023/08/25 07:27:46;;;;;;;4.95;3.45;;;22.00;99.90;;;;;;5096533;28;20284;-83
2023/08/25 07:30:13;;;;;;;7.78;3.60;;;21.90;99.90;;;;;;5088806;28;20305;-82
2023/08/25 07:32:39;;;;;;;4.53;3.55;;;21.90;99.90;;;;;;5083795;28;20204;-82
2023/08/25 07:35:07;;;;;;;5.93;3.35;;;21.80;99.90;;;;;;5092772;28;20220;-82
2023/08/25 07:37:34;;;;;;;6.95;3.60;;;21.90;99.90;;;;;;5093161;28;20289;-84
2023/08/25 07:40:04;;;;;;;5.22;3.70;;;22.00;99.90;;;;;;5097779;28;20742;-84
2023/08/25 07:42:32;;;;;;;7.13;3.78;;;22.00;99.90;;;;;;5097072;28;20209;-82
2023/08/25 07:44:59;;;;;;;4.30;3.20;;;22.20;99.90;;;;;;5096448;28;20666;-81
2023/08/25 07:47:27;;;;;;;5.25;3.70;;;22.20;99.90;;;;;;5095505;28;20260;-82
2023/08/25 07:49:53;;;;;;;5.95;3.50;;;22.20;99.90;;;;;;5087375;28;20236;-83
2023/08/25 07:52:20;;;;;;;5.70;3.75;;;22.30;99.90;;;;;;5094942;28;20292;-82
2023/08/25 07:54:47;;;;;;;4.55;3.17;;;22.30;99.90;;;;;;5085829;28;20224;-82
2023/08/25 07:57:14;;;;;;;5.85;3.70;;;22.40;99.90;;;;;;5096879;28;20194;-83
2023/08/25 07:59:42;;;;;;;5.97;4.03;;;22.40;99.90;;;;;;5090367;28;20218;-83
2023/08/25 08:02:10;;;;;;;8.43;3.95;;;22.50;99.90;;;;;;5090378;28;20206;-85
2023/08/25 08:04:38;;;;;;;4.95;3.63;;;22.50;99.90;;;;;;5087620;28;20538;-85
2023/08/25 08:07:05;;;;;;;5.07;4.03;;;22.60;99.90;;;;;;5099965;28;20205;-84
2023/08/25 08:09:32;;;;;;;9.77;3.75;;;22.60;99.90;;;;;;5104581;28;20705;-84
2023/08/25 08:12:00;;;;;;;7.28;3.92;;;22.70;99.90;;;;;;5094312;28;20217;-87
2023/08/25 08:14:27;;;;;;;4.13;3.35;;;22.80;99.90;;;;;;5096916;28;20214;-83
2023/08/25 08:16:56;;;;;;;7.00;3.35;;;22.90;99.90;;;;;;5099681;28;20212;-82
2023/08/25 08:19:23;;;;;;;5.85;3.80;;;22.90;99.90;;;;;;5085204;28;20222;-82
2023/08/25 08:21:50;;;;;;;4.55;3.30;;;22.90;99.90;;;;;;5091257;28;20617;-81
2023/08/25 08:24:17;;;;;;;5.10;3.35;;;23.00;99.90;;;;;;5093548;28;20212;-82
2023/08/25 08:26:44;;;;;;;4.15;3.40;;;23.10;99.90;;;;;;5090339;28;20739;-84
2023/08/25 08:29:11;;;;;;;5.47;3.33;;;23.10;99.90;;;;;;5084482;28;20691;-83
2023/08/25 08:31:40;;;;;;;12.65;6.88;;;23.30;99.90;;;;;;5096321;28;20233;-84
2023/08/25 08:34:11;;;;;;;5.07;3.40;;;23.50;99.90;;;;;;5099792;28;20683;-83
2023/08/25 08:36:38;;;;;;;7.80;3.13;;;23.70;99.90;;;;;;5096067;28;20213;-83
2023/08/25 08:39:06;;;;;;;6.18;3.17;;;23.90;99.90;;;;;;5100578;28;20218;-83
2023/08/25 08:41:33;;;;;;;5.43;3.50;;;24.00;99.90;;;;;;5090547;28;20198;-83
2023/08/25 08:44:01;;;;;;;5.53;3.20;;;24.10;99.90;;;;;;5085296;28;20210;-83
2023/08/25 08:46:32;;;;;;;6.43;3.17;;;24.20;99.90;;;;;;5082174;28;20660;-83
2023/08/25 08:48:59;;;;;;;7.28;3.20;;;24.10;99.90;;;;;;5083007;28;20197;-84
2023/08/25 08:51:31;;;;;;;4.07;3.03;;;24.20;99.90;;;;;;5082394;28;20201;-83
2023/08/25 08:53:58;;;;;;;5.03;3.58;;;24.20;99.90;;;;;;5084923;28;20218;-84
2023/08/25 08:56:26;;;;;;;8.43;5.32;;;24.30;99.90;;;;;;5091146;28;20209;-84
2023/08/25 08:58:53;;;;;;;7.40;3.70;;;24.30;99.90;;;;;;5098096;28;20288;-84
2023/08/25 09:01:22;;;;;;;4.75;3.50;;;24.50;99.90;;;;;;5093036;28;20671;-85
2023/08/25 09:03:50;;;;;;;3.95;3.45;;;24.40;99.90;;;;;;5088448;28;20292;-83
2023/08/25 09:06:18;;;;;;;7.72;4.22;;;24.50;99.90;;;;;;5086359;28;20570;-84
2023/08/25 09:08:52;;;;;;;7.03;3.83;;;24.70;99.90;;;;;;5093716;28;20198;-84
2023/08/25 09:11:20;;;;;;;6.40;3.60;;;25.00;99.90;;;;;;5080501;28;20620;-82
2023/08/25 09:13:54;;;;;;;6.00;3.85;;;25.00;99.90;;;;;;5096525;28;20312;-84
2023/08/25 09:16:23;;;;;;;7.13;4.45;;;25.10;99.90;;;;;;5094356;28;20578;-83
2023/08/25 09:18:50;;;;;;;6.38;3.60;;;25.10;99.90;;;;;;5087208;28;20630;-84
2023/08/25 09:21:18;;;;;;;4.82;3.30;;;25.30;99.90;;;;;;5077929;28;20225;-83
2023/08/25 09:23:58;;;;;;;3.72;3.33;;;25.50;99.90;;;;;;5079101;28;20195;-83
2023/08/25 09:26:25;;;;;;;5.43;4.22;;;25.80;99.90;;;;;;5077870;28;20571;-84
2023/08/25 09:28:54;;;;;;;5.43;3.97;;;25.50;99.90;;;;;;5078873;28;20293;-84
2023/08/25 09:31:21;;;;;;;7.88;5.70;;;25.60;99.90;;;;;;5078432;28;20206;-85
2023/08/25 09:33:48;;;;;;;6.57;4.60;;;25.50;99.90;;;;;;5077629;28;20321;-85
2023/08/25 09:36:17;;;;;;;8.40;5.28;;;25.40;99.90;;;;;;5089304;28;20194;-84
2023/08/25 09:38:45;;;;;;;7.38;4.10;;;25.40;99.90;;;;;;5098891;28;20201;-84
2023/08/25 09:41:22;;;;;;;6.65;3.80;;;25.50;99.90;;;;;;5089969;28;20648;-83
2023/08/25 09:43:49;;;;;;;6.43;3.85;;;25.50;99.90;;;;;;5089051;28;20252;-83
2023/08/25 09:46:16;;;;;;;7.85;3.92;;;25.20;99.90;;;;;;5085939;28;20201;-83
2023/08/25 09:48:45;;;;;;;6.97;4.30;;;25.20;99.90;;;;;;5090250;28;20210;-82
2023/08/25 09:51:16;;;;;;;6.22;4.47;;;24.90;99.90;;;;;;5093328;28;20198;-82
2023/08/25 09:53:45;;;;;;;5.47;3.80;;;24.80;99.90;;;;;;5104388;28;20200;-84
2023/08/25 09:56:14;;;;;;;4.97;3.63;;;24.60;99.90;;;;;;5078963;28;20224;-84
2023/08/25 09:58:42;;;;;;;5.47;3.78;;;24.50;99.90;;;;;;5088234;28;20202;-82
2023/08/25 10:01:09;;;;;;;3.90;3.50;;;24.30;99.90;;;;;;5085138;28;20313;-83
2023/08/25 10:03:37;;;;;;;3.95;3.60;;;24.30;99.90;;;;;;5082337;28;20193;-81
2023/08/25 10:06:04;;;;;;;4.45;3.80;;;24.10;99.90;;;;;;5077359;28;20210;-85
2023/08/25 10:08:32;;;;;;;6.47;3.60;;;24.10;99.90;;;;;;5094565;28;20289;-83
2023/08/25 10:11:00;;;;;;;5.95;3.90;;;24.00;99.90;;;;;;5096840;28;20694;-86
2023/08/25 10:13:30;;;;;;;5.85;3.90;;;23.90;99.90;;;;;;5077947;28;20646;-85
2023/08/25 10:16:01;;;;;;;8.43;4.25;;;23.70;99.90;;;;;;5077081;28;20317;-85
2023/08/25 10:18:29;;;;;;;7.88;4.38;;;23.60;99.90;;;;;;5089476;28;20262;-84
2023/08/25 10:20:57;;;;;;;7.15;4.30;;;23.40;99.90;;;;;;5095990;28;20810;-84
2023/08/25 10:23:26;;;;;;;5.10;3.65;;;23.40;99.90;;;;;;5097308;28;20293;-84
2023/08/25 10:25:53;;;;;;;7.07;4.30;;;23.20;99.90;;;;;;5097889;28;20208;-84
2023/08/25 10:28:20;;;;;;;6.75;4.63;;;23.10;99.90;;;;;;5098292;28;20742;-84
2023/08/25 10:30:50;;;;;;;7.30;5.15;;;22.70;99.90;;;;;;5096834;28;20217;-84
2023/08/25 10:33:17;;;;;;;11.10;5.35;;;22.40;99.90;;;;;;5098043;28;20581;-84
2023/08/25 10:35:45;;;;;;;8.77;5.35;;;22.30;99.90;;;;;;5098703;28;20629;-83
2023/08/25 10:38:39;;;;;;;12.77;6.20;;;22.10;99.90;;;;;;5098443;28;20213;-84
2023/08/25 10:41:17;;;;;;;13.52;6.47;;;21.90;99.90;;;;;;5098331;28;20240;-83
2023/08/25 10:43:50;;;;;;;8.98;5.50;;;21.60;99.90;;;;;;5098520;28;20209;-83
2023/08/25 10:46:21;;;;;;;10.70;6.05;;;21.30;99.90;;;;;;5097787;28;20653;-83
2023/08/25 10:48:49;;;;;;;8.13;5.90;;;21.30;99.90;;;;;;5097519;28;20205;-84
2023/08/25 10:51:20;;;;;;;8.57;6.45;;;21.30;99.90;;;;;;5097717;28;20575;-83
2023/08/25 10:53:50;;;;;;;11.95;6.15;;;21.40;99.90;;;;;;5098640;28;20198;-83
2023/08/25 10:56:22;;;;;;;10.82;6.43;;;21.10;99.90;;;;;;5099052;28;20285;-83
2023/08/25 10:58:57;;;;;;;13.45;6.93;;;21.00;99.90;;;;;;5100811;28;20212;-83
2023/08/25 11:01:27;;;;;;;12.32;7.07;;;21.10;99.90;;;;;;5099849;28;20211;-83
2023/08/25 11:04:06;;;;;;;11.35;6.85;;;21.20;99.90;;;;;;5099286;28;20206;-83
2023/08/25 11:06:40;;;;;;;7.85;5.95;;;21.20;99.90;;;;;;5097882;28;20197;-83
2023/08/25 11:09:08;;;;;;;9.23;6.60;;;20.90;99.90;;;;;;5103942;28;20236;-83
2023/08/25 11:11:37;;;;;;;9.25;6.32;;;20.80;99.90;;;;;;5105473;28;20201;-83
2023/08/25 11:14:04;;;;;;;10.77;6.72;;;20.80;99.90;;;;;;5105706;28;20207;-83
2023/08/25 11:16:32;;;;;;;11.18;7.20;;;20.70;99.90;;;;;;5105468;28;20213;-83
2023/08/25 11:18:59;;;;;;;9.65;7.22;;;20.60;99.90;;;;;;5104531;28;20201;-83
2023/08/25 11:21:27;;;;;;;8.60;7.10;;;20.70;99.90;;;;;;5105117;28;20587;-83
2023/08/25 11:23:54;;;;;;;12.00;7.65;;;20.70;99.90;;;;;;5104946;28;20207;-84
2023/08/25 11:26:21;;;;;;;13.90;9.38;;;20.50;99.90;;;;;;5105303;28;20206;-83
2023/08/25 11:28:49;;;;;;;14.35;9.35;;;20.60;99.90;;;;;;5105319;28;20262;-83
2023/08/25 11:31:17;;;;;;;12.05;9.48;;;21.20;99.90;;;;;;5105551;28;20205;-83
2023/08/25 11:33:47;;;;;;;11.57;8.07;;;21.60;99.90;;;;;;5105155;28;20201;-83
2023/08/25 11:36:16;;;;;;;10.57;7.25;;;21.60;99.90;;;;;;5105238;28;20217;-83
2023/08/25 11:38:47;;;;;;;12.00;7.72;;;21.70;99.90;;;;;;5105384;28;20205;-83
2023/08/25 11:41:14;;;;;;;10.20;7.80;;;21.70;99.90;;;;;;5105775;28;20674;-83
2023/08/25 11:43:41;;;;;;;11.00;7.47;;;21.50;99.90;;;;;;5104769;28;20213;-82
2023/08/25 11:46:09;;;;;;;14.13;7.07;;;21.20;99.90;;;;;;5105012;28;20289;-83
2023/08/25 11:48:36;;;;;;;7.57;6.32;;;20.90;99.90;;;;;;5104622;28;20198;-82
2023/08/25 11:51:05;;;;;;;9.32;6.65;;;20.60;99.90;;;;;;5104833;28;20233;-83
2023/08/25 11:53:32;;;;;;;9.55;6.90;;;20.60;99.90;;;;;;5104382;28;20237;-83
2023/08/25 11:56:03;;;;;;;10.10;6.75;;;20.80;99.90;;;;;;5104908;28;20225;-84
2023/08/25 11:58:31;;;;;;;11.48;6.70;;;20.80;99.90;;;;;;5104267;28;20203;-84
2023/08/25 12:01:06;;;;;;;9.20;6.68;;;20.60;99.90;;;;;;5104054;28;20228;-83
2023/08/25 12:03:33;;;;;;;8.27;5.65;;;20.80;99.90;;;;;;5104734;28;20201;-84
2023/08/25 12:06:00;;;;;;;7.72;5.90;;;20.80;99.90;;;;;;5104164;28;20194;-84
2023/08/25 12:08:28;;;;;;;11.07;7.72;;;20.80;99.90;;;;;;5103511;28;20265;-83
2023/08/25 12:10:56;;;;;;;11.07;7.85;;;20.90;99.90;;;;;;5103704;28;20586;-84
2023/08/25 12:13:29;;;;;;;12.10;8.93;;;20.90;99.90;;;;;;5100798;28;20547;-84
2023/08/25 12:15:56;;;;;;;10.18;7.50;;;20.90;99.90;;;;;;5098933;28;20633;-83
2023/08/25 12:18:24;;;;;;;10.48;8.10;;;20.90;99.90;;;;;;5113908;28;20720;-83
2023/08/25 12:20:51;;;;;;;11.02;8.23;;;20.80;99.90;;;;;;5121996;28;20297;-83
2023/08/25 12:23:18;;;;;;;10.25;7.57;;;20.80;99.90;;;;;;5123007;28;20608;-83
2023/08/25 12:25:46;;;;;;;9.57;6.60;;;20.80;99.90;;;;;;5123336;28;20197;-84
2023/08/25 12:28:13;;;;;;;6.22;5.07;;;20.60;99.90;;;;;;5108410;28;20212;-84
2023/08/25 12:30:40;;;;;;;7.82;5.30;;;20.60;99.90;;;;;;5099155;28;20268;-82
2023/08/25 12:33:07;;;;;;;6.93;5.55;;;20.60;99.90;;;;;;5100413;28;20207;-84
2023/08/25 12:35:34;;;;;;;7.00;5.15;;;20.50;99.90;;;;;;5100366;28;20225;-83
2023/08/25 12:38:00;;;;;;;9.55;5.47;;;20.30;99.90;;;;;;5083302;28;20740;-83
2023/08/25 12:40:27;;;;;;;7.07;5.28;;;20.20;99.90;;;;;;5080081;28;20233;-84
2023/08/25 12:42:55;;;;;;;7.95;5.63;;;20.20;99.90;;;;;;5080097;28;20234;-84
2023/08/25 12:45:23;;;;;;;7.28;4.97;;;20.10;99.90;;;;;;5108784;28;20283;-84
2023/08/25 12:47:50;;;;;;;8.55;5.38;;;20.10;99.90;;;;;;5097213;28;20288;-84
2023/08/25 12:50:17;;;;;;;8.10;5.05;;;20.20;99.90;;;;;;5099943;28;20243;-84